Terminal Aerodrome Forecast
Issued by NWS

Home | Current Version | Previous Version | Text Only | Print | Product List | Glossary On
Versions: 1 2 3 4 5 6 7 8 9 10 11 12 13 14 15 16 17 18 19 20 21 22 23
024
FTUS46 KMTR 191733
TAFSFO
TAF
KSFO 191733Z 1918/2024 24012KT P6SM SHRA SCT030 BKN080
     FM191900 24013KT P6SM -SHRA BKN040
     FM200300 23007KT P6SM VCSH BKN030 OVC050
     FM200600 18007KT P6SM -RA BKN030 OVC050
     FM201000 14018G30KT 5SM -RA OVC025
      TEMPO 2012/2016 3SM RA OVC015
     FM201600 23023G32KT 5SM -RA OVC015
     FM202000 25021KT P6SM -SHRA BKN020 OVC050=

USA.gov is the U.S. government's official web portal to all federal, state and local government web resources and services.